createdAt,value
2019-06-01T00:00:11.023Z,68.99
2019-06-01T00:02:34.720Z,69.09
2019-06-01T00:05:06.790Z,69.23
2019-06-01T00:07:39.080Z,69.39
2019-06-01T00:10:11.759Z,69.67
2019-06-01T00:12:43.669Z,69.65
2019-06-01T00:15:15.730Z,69.76
2019-06-01T00:17:47.972Z,69.87
2019-06-01T00:20:21.274Z,69.84
2019-06-01T00:22:53.251Z,70.04
2019-06-01T00:25:25.544Z,70.24
2019-06-01T00:27:57.437Z,70.29
2019-06-01T00:30:29.684Z,70.38
2019-06-01T00:33:01.566Z,70.42
2019-06-01T00:35:33.609Z,70.46
2019-06-01T00:38:05.857Z,70.40
2019-06-01T00:40:38.669Z,70.38
2019-06-01T00:43:10.520Z,70.70
2019-06-01T00:45:44.386Z,70.86
2019-06-01T00:48:16.315Z,70.83
2019-06-01T00:50:49.135Z,70.82
2019-06-01T00:53:21.499Z,71.00
2019-06-01T00:55:53.693Z,71.18
2019-06-01T00:58:25.656Z,71.43
2019-06-01T01:00:57.520Z,71.48
2019-06-01T01:03:29.427Z,71.45
2019-06-01T01:06:01.481Z,71.41
2019-06-01T01:08:33.531Z,71.42
2019-06-01T01:11:05.917Z,71.41
2019-06-01T01:13:37.805Z,71.54
2019-06-01T01:16:09.693Z,71.64
2019-06-01T01:18:41.488Z,71.83
2019-06-01T01:21:13.550Z,72.03
2019-06-01T01:23:46.169Z,72.15
2019-06-01T01:26:18.406Z,72.38
2019-06-01T01:28:50.986Z,72.48
2019-06-01T01:31:22.948Z,72.59
2019-06-01T01:33:55.497Z,72.64
2019-06-01T01:36:27.908Z,72.63
2019-06-01T01:38:59.677Z,72.72
2019-06-01T01:41:31.570Z,72.76
2019-06-01T01:44:03.742Z,73.05
2019-06-01T01:46:35.861Z,72.95
2019-06-01T01:49:08.823Z,72.82
2019-06-01T01:51:40.749Z,72.91
2019-06-01T01:54:12.834Z,72.89
2019-06-01T01:56:44.947Z,72.78
2019-06-01T01:59:16.784Z,72.84
2019-06-01T02:01:48.732Z,72.83
2019-06-01T02:04:20.595Z,72.85
2019-06-01T02:06:52.405Z,72.57
2019-06-01T02:09:24.292Z,72.80
2019-06-01T02:11:57.585Z,72.67
2019-06-01T02:14:30.162Z,72.77
2019-06-01T02:17:02.535Z,72.93
2019-06-01T02:19:36.506Z,72.95
2019-06-01T02:22:08.990Z,72.91
2019-06-01T02:24:41.110Z,73.14
2019-06-01T02:27:12.915Z,73.33
2019-06-01T02:29:44.718Z,73.21
2019-06-01T02:32:16.547Z,73.18
2019-06-01T02:34:48.350Z,73.35
2019-06-01T02:37:20.098Z,73.48
2019-06-01T02:39:52.100Z,73.54
2019-06-01T02:42:23.895Z,73.47
2019-06-01T02:44:57.288Z,73.36
2019-06-01T02:47:29.285Z,73.32
2019-06-01T02:50:01.366Z,73.46
2019-06-01T02:52:34.800Z,73.43
2019-06-01T02:55:07.313Z,73.56
2019-06-01T02:57:39.434Z,73.82
2019-06-01T03:00:11.737Z,73.78
2019-06-01T03:02:45.018Z,73.67
2019-06-01T03:05:16.786Z,73.44
2019-06-01T03:07:52.725Z,73.44
2019-06-01T03:10:25.091Z,73.44
2019-06-01T03:13:02.088Z,73.51
2019-06-01T03:15:36.967Z,73.37
2019-06-01T03:18:11.865Z,73.41
2019-06-01T03:20:48.527Z,73.65
2019-06-01T03:23:23.449Z,74.03
2019-06-01T03:25:59.868Z,74.24
2019-06-01T03:28:37.213Z,74.42
2019-06-01T03:31:10.689Z,74.66
2019-06-01T03:33:42.681Z,74.94
2019-06-01T03:36:14.454Z,75.18
2019-06-01T03:38:47.013Z,75.25
2019-06-01T03:41:19.247Z,75.41
2019-06-01T03:43:51.162Z,75.45
2019-06-01T03:46:22.955Z,75.56
2019-06-01T03:48:55.293Z,75.58
2019-06-01T03:51:28.028Z,75.65
2019-06-01T03:54:00.899Z,75.60
2019-06-01T03:56:33.171Z,75.54
2019-06-01T03:59:05.139Z,75.49
2019-06-01T04:01:37.002Z,75.33
2019-06-01T04:04:11.264Z,75.21
2019-06-01T04:06:43.212Z,74.99
2019-06-01T04:09:14.987Z,74.87
2019-06-01T04:11:47.041Z,74.70
2019-06-01T04:14:18.934Z,74.64
2019-06-01T04:16:50.768Z,74.50
2019-06-01T04:19:22.851Z,74.48
2019-06-01T04:21:54.628Z,74.44
2019-06-01T04:24:28.716Z,74.82
2019-06-01T04:27:00.552Z,74.94
2019-06-01T04:29:33.662Z,74.89
2019-06-01T04:32:06.506Z,74.80
2019-06-01T04:34:38.578Z,74.95
2019-06-01T04:37:11.284Z,75.51
2019-06-01T04:39:43.351Z,75.58
2019-06-01T04:42:15.822Z,75.74
2019-06-01T04:44:48.015Z,75.42
2019-06-01T04:47:19.790Z,74.95
2019-06-01T04:49:51.787Z,74.60
2019-06-01T04:52:23.545Z,74.42
2019-06-01T04:54:55.383Z,74.18
2019-06-01T04:57:27.489Z,74.00
2019-06-01T04:59:59.297Z,73.83
2019-06-01T05:02:31.112Z,73.50
2019-06-01T05:05:02.945Z,73.16
2019-06-01T05:07:34.711Z,72.88
2019-06-01T05:10:07.564Z,72.76
2019-06-01T05:12:39.843Z,72.39
2019-06-01T05:15:16.086Z,72.02
2019-06-01T05:17:48.057Z,71.44
2019-06-01T05:20:20.717Z,71.06
2019-06-01T05:22:55.167Z,70.84
2019-06-01T05:25:28.841Z,70.64
2019-06-01T05:28:00.883Z,70.47
2019-06-01T05:30:32.705Z,70.25
2019-06-01T05:33:18.576Z,69.98
2019-06-01T05:35:39.022Z,69.48
2019-06-01T05:38:12.197Z,69.12
2019-06-01T05:40:44.343Z,69.21
2019-06-01T05:43:19.267Z,69.27
2019-06-01T05:45:51.634Z,68.93
2019-06-01T05:48:28.449Z,68.19
2019-06-01T05:50:58.458Z,67.65
2019-06-01T05:53:31.425Z,66.73
2019-06-01T05:56:03.249Z,65.84
2019-06-01T05:58:35.273Z,65.17
2019-06-01T06:01:07.099Z,64.97
2019-06-01T06:03:40.597Z,65.05
2019-06-01T06:06:13.742Z,64.60
2019-06-01T06:08:45.932Z,64.21
2019-06-01T06:11:19.019Z,63.66
2019-06-01T06:13:51.285Z,62.84
2019-06-01T06:16:23.117Z,62.31
2019-06-01T06:18:54.932Z,62.06
2019-06-01T06:21:27.010Z,61.76
2019-06-01T06:23:58.760Z,61.22
2019-06-01T06:26:30.835Z,60.80
2019-06-01T06:29:02.885Z,60.48
2019-06-01T06:31:34.852Z,60.31
2019-06-01T06:34:06.633Z,60.15
2019-06-01T06:36:38.778Z,59.72
2019-06-01T06:39:10.577Z,59.27
2019-06-01T06:41:42.721Z,58.55
2019-06-01T06:44:16.327Z,58.71
2019-06-01T06:46:48.336Z,59.57
2019-06-01T06:49:21.292Z,59.49
2019-06-01T06:51:54.545Z,59.54
2019-06-01T06:54:26.360Z,59.23
2019-06-01T06:56:59.716Z,58.07
2019-06-01T06:59:32.780Z,57.53
2019-06-01T07:02:04.985Z,57.36
2019-06-01T07:04:36.752Z,57.27
2019-06-01T07:07:08.553Z,57.00
2019-06-01T07:09:41.939Z,56.47
2019-06-01T07:12:14.065Z,56.08
2019-06-01T07:14:45.930Z,55.54
2019-06-01T07:17:18.345Z,55.54
2019-06-01T07:19:51.149Z,55.19
2019-06-01T07:22:23.785Z,54.94
2019-06-01T07:24:56.357Z,55.00
2019-06-01T07:27:28.497Z,54.93
2019-06-01T07:30:00.331Z,54.72
2019-06-01T07:32:32.887Z,54.52
2019-06-01T07:35:05.192Z,54.13
2019-06-01T07:37:37.171Z,52.87
2019-06-01T07:40:13.386Z,52.08
2019-06-01T07:42:43.255Z,51.33
2019-06-01T07:45:16.151Z,50.51
2019-06-01T07:47:48.137Z,48.88
2019-06-01T07:50:19.968Z,47.58
2019-06-01T07:52:53.250Z,47.88
2019-06-01T07:55:25.479Z,48.43
2019-06-01T07:57:57.708Z,49.28
2019-06-01T08:00:29.514Z,48.60
2019-06-01T08:03:01.327Z,49.24
2019-06-01T08:05:33.306Z,50.48
2019-06-01T08:08:06.261Z,52.25
2019-06-01T08:10:38.132Z,51.17
2019-06-01T08:13:10.082Z,52.53
2019-06-01T08:15:41.939Z,52.94
2019-06-01T08:18:14.021Z,52.93
2019-06-01T08:20:45.890Z,52.36
2019-06-01T08:23:19.024Z,51.67
2019-06-01T08:25:50.842Z,50.93
2019-06-01T08:28:22.601Z,49.62
2019-06-01T08:30:54.638Z,47.76
2019-06-01T08:33:30.180Z,48.53
2019-06-01T08:36:00.023Z,49.59
2019-06-01T08:38:31.913Z,50.06
2019-06-01T08:41:04.109Z,50.01
2019-06-01T08:43:36.319Z,49.28
2019-06-01T08:46:08.350Z,46.64
2019-06-01T08:48:40.188Z,44.93
2019-06-01T08:51:12.007Z,44.82
2019-06-01T08:53:45.454Z,46.22
2019-06-01T08:56:21.069Z,47.48
2019-06-01T08:58:52.917Z,48.38
2019-06-01T09:01:24.788Z,48.52
2019-06-01T09:03:57.765Z,47.39
2019-06-01T09:06:30.874Z,47.19
2019-06-01T09:09:03.033Z,45.52
2019-06-01T09:11:35.349Z,44.71
2019-06-01T09:14:07.499Z,43.97
2019-06-01T09:16:39.580Z,44.06
2019-06-01T09:19:11.852Z,44.65
2019-06-01T09:21:43.771Z,44.64
2019-06-01T09:24:15.615Z,43.77
2019-06-01T09:26:47.437Z,41.61
2019-06-01T09:29:19.264Z,40.98
2019-06-01T09:31:51.087Z,40.17
2019-06-01T09:34:23.069Z,41.15
2019-06-01T09:36:55.723Z,41.48
2019-06-01T09:39:29.087Z,41.17
2019-06-01T09:42:01.281Z,41.24
2019-06-01T09:44:35.211Z,40.97
2019-06-01T09:47:07.370Z,41.03
2019-06-01T09:49:39.243Z,41.72
2019-06-01T09:52:12.995Z,41.41
2019-06-01T09:54:45.138Z,41.66
2019-06-01T09:57:16.960Z,41.32
2019-06-01T09:59:50.088Z,39.12
2019-06-01T10:02:22.217Z,40.50
2019-06-01T10:04:54.312Z,40.08
2019-06-01T10:07:26.217Z,38.54
2019-06-01T10:09:58.443Z,39.04
2019-06-01T10:12:30.251Z,37.43
2019-06-01T10:15:02.362Z,36.81
2019-06-01T10:17:35.143Z,36.97
2019-06-01T10:20:07.956Z,37.56
2019-06-01T10:22:39.846Z,37.04
2019-06-01T10:25:12.395Z,37.37
2019-06-01T10:27:44.204Z,36.74
2019-06-01T10:30:16.571Z,37.13
2019-06-01T10:32:48.734Z,37.38
2019-06-01T10:35:20.818Z,37.79
2019-06-01T10:37:52.616Z,38.25
2019-06-01T10:40:25.300Z,36.64
2019-06-01T10:42:57.168Z,36.24
2019-06-01T10:45:29.211Z,36.03
2019-06-01T10:48:01.035Z,36.35
2019-06-01T10:50:34.883Z,35.97
2019-06-01T10:53:06.648Z,34.90
2019-06-01T10:55:38.801Z,35.03
2019-06-01T10:58:10.662Z,35.47
2019-06-01T11:00:50.059Z,34.83
2019-06-01T11:03:16.198Z,34.20
2019-06-01T11:05:48.065Z,34.31
2019-06-01T11:08:20.004Z,35.14
2019-06-01T11:10:52.104Z,34.95
2019-06-01T11:13:23.896Z,34.38
2019-06-01T11:15:55.949Z,34.07
2019-06-01T11:18:27.781Z,34.20
2019-06-01T11:20:59.786Z,34.54
2019-06-01T11:23:31.737Z,34.89
2019-06-01T11:26:03.804Z,34.63
2019-06-01T11:28:37.985Z,35.07
2019-06-01T11:31:10.430Z,35.36
2019-06-01T11:33:42.338Z,35.75
2019-06-01T11:36:14.424Z,35.47
2019-06-01T11:38:46.252Z,34.50
2019-06-01T11:41:18.800Z,34.13
2019-06-01T11:43:50.994Z,34.90
2019-06-01T11:46:23.096Z,36.29
2019-06-01T11:48:55.184Z,36.48
2019-06-01T11:51:27.215Z,35.22
2019-06-01T11:53:59.125Z,34.95
2019-06-01T11:56:30.935Z,34.15
2019-06-01T11:59:03.209Z,34.20
2019-06-01T12:01:39.749Z,33.79
2019-06-01T12:04:12.080Z,33.14
2019-06-01T12:06:44.153Z,32.66
2019-06-01T12:09:15.986Z,32.67
2019-06-01T12:11:47.954Z,31.86
2019-06-01T12:14:19.781Z,30.79
2019-06-01T12:16:51.894Z,30.44
2019-06-01T12:19:24.366Z,31.20
2019-06-01T12:21:56.424Z,31.37
2019-06-01T12:24:28.221Z,30.98
2019-06-01T12:27:00.367Z,31.36
2019-06-01T12:29:32.242Z,31.06
2019-06-01T12:32:04.301Z,29.95
2019-06-01T12:34:37.984Z,28.93
2019-06-01T12:37:10.270Z,27.85
2019-06-01T12:39:42.343Z,28.07
2019-06-01T12:42:14.244Z,28.32
2019-06-01T12:44:46.068Z,27.34
2019-06-01T12:47:18.223Z,27.66
2019-06-01T12:49:50.059Z,28.42
2019-06-01T12:52:22.031Z,28.92
2019-06-01T12:54:53.855Z,27.24
2019-06-01T12:57:25.713Z,26.05
2019-06-01T12:59:57.512Z,25.64
2019-06-01T13:02:29.598Z,27.59
2019-06-01T13:05:01.600Z,28.60
2019-06-01T13:07:50.570Z,25.48
2019-06-01T13:10:09.840Z,22.44
2019-06-01T13:12:43.010Z,20.69
2019-06-01T13:15:15.312Z,21.96
2019-06-01T13:17:47.351Z,22.36
2019-06-01T13:20:19.965Z,20.46
2019-06-01T13:22:52.046Z,19.47
2019-06-01T13:25:24.443Z,19.24
2019-06-01T13:27:56.558Z,19.54
2019-06-01T13:30:30.063Z,19.51
2019-06-01T13:33:01.883Z,20.90
2019-06-01T13:35:34.059Z,19.03
2019-06-01T13:38:12.417Z,17.89
2019-06-01T13:40:39.814Z,19.27
2019-06-01T13:43:11.652Z,20.04
2019-06-01T13:45:43.454Z,21.19
2019-06-01T13:48:15.437Z,20.47
2019-06-01T13:50:47.804Z,16.90
2019-06-01T13:53:20.021Z,15.04
2019-06-01T13:55:52.810Z,13.61
2019-06-01T13:58:25.212Z,12.82
2019-06-01T14:00:57.105Z,12.20
2019-06-01T14:03:28.945Z,12.06
2019-06-01T14:06:01.164Z,11.49
2019-06-01T14:08:33.346Z,11.13
2019-06-01T14:11:05.171Z,10.80
2019-06-01T14:13:37.274Z,11.71
2019-06-01T14:16:09.171Z,12.74
2019-06-01T14:18:41.184Z,13.66
2019-06-01T14:21:13.292Z,16.13
2019-06-01T14:23:45.759Z,17.14
2019-06-01T14:26:17.763Z,17.62
2019-06-01T14:28:50.143Z,15.31
2019-06-01T14:31:22.081Z,13.93
2019-06-01T14:33:54.871Z,12.71
2019-06-01T14:36:26.928Z,13.48
2019-06-01T14:38:59.157Z,12.76
2019-06-01T14:41:31.061Z,11.75
2019-06-01T14:44:03.190Z,11.36
2019-06-01T14:46:43.817Z,11.04
2019-06-01T14:49:08.956Z,13.86
2019-06-01T14:51:41.012Z,15.19
2019-06-01T14:54:12.933Z,16.38
2019-06-01T14:56:44.810Z,19.02
2019-06-01T14:59:16.610Z,19.55
2019-06-01T15:01:48.390Z,16.84
2019-06-01T15:04:21.879Z,14.65
2019-06-01T15:06:54.379Z,13.76
2019-06-01T15:09:26.536Z,12.74
2019-06-01T15:11:58.712Z,13.58
2019-06-01T15:14:30.948Z,16.30
2019-06-01T15:17:02.783Z,18.08
2019-06-01T15:19:34.644Z,18.22
2019-06-01T15:22:07.235Z,20.92
2019-06-01T15:24:39.210Z,23.09
2019-06-01T15:27:11.015Z,24.51
2019-06-01T15:29:43.161Z,22.89
2019-06-01T15:32:14.937Z,18.76
2019-06-01T15:34:47.122Z,16.30
2019-06-01T15:37:19.055Z,14.85
2019-06-01T15:39:50.825Z,16.39
2019-06-01T15:42:22.607Z,15.27
2019-06-01T15:44:55.071Z,14.35
2019-06-01T15:47:28.301Z,13.32
2019-06-01T15:50:00.286Z,12.66
2019-06-01T15:52:32.036Z,12.73
2019-06-01T15:55:03.829Z,13.17
2019-06-01T15:57:35.660Z,14.01
2019-06-01T16:00:09.166Z,15.35
2019-06-01T16:02:41.098Z,16.16
2019-06-01T16:05:14.249Z,16.43
2019-06-01T16:07:46.164Z,16.90
2019-06-01T16:10:18.150Z,17.35
2019-06-01T16:12:49.916Z,17.61
2019-06-01T16:15:21.861Z,17.04
2019-06-01T16:17:55.800Z,17.69
2019-06-01T16:20:27.844Z,18.78
2019-06-01T16:23:00.332Z,19.71
2019-06-01T16:25:32.451Z,20.71
2019-06-01T16:28:05.549Z,22.03
2019-06-01T16:30:37.737Z,23.16
2019-06-01T16:33:09.572Z,23.61
2019-06-01T16:35:41.444Z,23.65
2019-06-01T16:38:13.476Z,24.45
2019-06-01T16:40:45.497Z,25.33
2019-06-01T16:43:17.788Z,26.29
2019-06-01T16:45:49.870Z,27.33
2019-06-01T16:48:21.762Z,27.72
2019-06-01T16:50:53.968Z,28.38
2019-06-01T16:53:26.025Z,29.17
2019-06-01T16:55:57.933Z,29.59
2019-06-01T16:58:30.155Z,29.97
2019-06-01T17:01:02.698Z,30.31
2019-06-01T17:03:34.699Z,30.93
2019-06-01T17:06:06.951Z,31.57
2019-06-01T17:08:39.421Z,32.31
2019-06-01T17:11:11.416Z,33.01
2019-06-01T17:13:43.290Z,33.69
2019-06-01T17:16:15.352Z,34.44
2019-06-01T17:18:47.267Z,34.79
2019-06-01T17:21:19.292Z,35.41
2019-06-01T17:23:51.216Z,35.54
2019-06-01T17:26:23.316Z,35.84
2019-06-01T17:28:55.106Z,35.88
2019-06-01T17:31:27.106Z,36.62
2019-06-01T17:34:00.317Z,37.45
2019-06-01T17:36:33.838Z,38.33
2019-06-01T17:39:08.089Z,38.34
2019-06-01T17:41:40.438Z,38.80
2019-06-01T17:44:12.889Z,39.00
2019-06-01T17:46:53.570Z,39.60
2019-06-01T17:49:18.309Z,40.33
2019-06-01T17:51:50.416Z,40.58
2019-06-01T17:54:22.326Z,40.98
2019-06-01T17:56:55.401Z,41.42
2019-06-01T17:59:28.373Z,41.82
2019-06-01T18:02:01.657Z,41.90
2019-06-01T18:04:34.194Z,42.54
2019-06-01T18:07:06.408Z,43.04
2019-06-01T18:09:38.619Z,43.44
2019-06-01T18:12:10.583Z,43.94
2019-06-01T18:14:42.402Z,44.00
2019-06-01T18:17:14.555Z,44.27
2019-06-01T18:19:46.381Z,45.09
2019-06-01T18:22:18.496Z,45.68
2019-06-01T18:24:50.646Z,45.74
2019-06-01T18:27:22.691Z,46.61
2019-06-01T18:29:54.615Z,46.67
2019-06-01T18:32:32.196Z,46.48
2019-06-01T18:35:04.931Z,45.90
2019-06-01T18:37:36.883Z,47.20
2019-06-01T18:40:09.810Z,48.24
2019-06-01T18:42:42.594Z,49.12
2019-06-01T18:45:15.856Z,49.56
2019-06-01T18:47:48.132Z,49.70
2019-06-01T18:50:20.393Z,50.30
2019-06-01T18:52:52.642Z,50.85
2019-06-01T18:55:27.552Z,51.37
2019-06-01T18:58:03.915Z,51.75
2019-06-01T19:00:39.542Z,52.12
2019-06-01T19:03:11.621Z,52.56
2019-06-01T19:05:43.551Z,52.93
2019-06-01T19:08:16.169Z,53.63
2019-06-01T19:10:49.527Z,53.85
2019-06-01T19:13:22.142Z,53.94
2019-06-01T19:15:54.087Z,54.47
2019-06-01T19:18:26.166Z,54.82
2019-06-01T19:20:58.022Z,55.23
2019-06-01T19:23:29.794Z,55.59
2019-06-01T19:26:01.745Z,55.86
2019-06-01T19:28:33.638Z,56.00
2019-06-01T19:31:06.686Z,56.13
2019-06-01T19:33:38.889Z,56.57
2019-06-01T19:36:11.366Z,56.99
2019-06-01T19:38:45.889Z,57.39
2019-06-01T19:41:18.036Z,57.71
2019-06-01T19:43:50.068Z,58.02
2019-06-01T19:46:22.014Z,58.22
2019-06-01T19:48:54.029Z,58.45
2019-06-01T19:51:25.827Z,58.75
2019-06-01T19:53:57.953Z,58.87
2019-06-01T19:56:29.836Z,58.96
2019-06-01T19:59:01.994Z,59.19
2019-06-01T20:01:33.864Z,59.36
2019-06-01T20:04:06.021Z,59.68
2019-06-01T20:06:37.841Z,59.80
2019-06-01T20:09:10.930Z,59.94
2019-06-01T20:11:43.140Z,60.20
2019-06-01T20:14:16.344Z,60.45
2019-06-01T20:16:48.511Z,60.46
2019-06-01T20:19:20.342Z,60.77
2019-06-01T20:21:52.209Z,61.16
2019-06-01T20:24:24.299Z,61.16
2019-06-01T20:26:57.363Z,61.35
2019-06-01T20:29:29.554Z,61.28
2019-06-01T20:32:01.444Z,61.66
2019-06-01T20:34:33.798Z,61.76
2019-06-01T20:37:05.601Z,62.07
2019-06-01T20:39:37.614Z,62.21
2019-06-01T20:42:20.928Z,62.59
2019-06-01T20:44:43.271Z,62.70
2019-06-01T20:47:16.548Z,63.02
2019-06-01T20:49:49.719Z,63.37
2019-06-01T20:52:23.291Z,63.58
2019-06-01T20:54:55.724Z,63.83
2019-06-01T20:57:28.080Z,64.20
2019-06-01T21:00:00.068Z,64.41
2019-06-01T21:02:31.864Z,64.44
2019-06-01T21:05:04.217Z,64.51
2019-06-01T21:07:36.018Z,64.62
2019-06-01T21:10:09.075Z,64.85
2019-06-01T21:12:45.463Z,65.08
2019-06-01T21:15:17.137Z,65.14
2019-06-01T21:17:50.353Z,65.28
2019-06-01T21:20:28.522Z,65.47
2019-06-01T21:22:56.248Z,65.73
2019-06-01T21:25:28.424Z,65.93
2019-06-01T21:28:00.511Z,65.98
2019-06-01T21:30:32.542Z,66.07
2019-06-01T21:33:04.352Z,66.19
2019-06-01T21:35:36.192Z,66.27
2019-06-01T21:38:08.123Z,66.53
2019-06-01T21:40:40.207Z,66.65
2019-06-01T21:43:23.896Z,66.62
2019-06-01T21:45:46.886Z,66.62
2019-06-01T21:48:19.749Z,66.67
2019-06-01T21:50:52.034Z,66.65
2019-06-01T21:53:24.566Z,66.72
2019-06-01T21:55:56.689Z,66.98
2019-06-01T21:58:28.974Z,67.15
2019-06-01T22:01:01.156Z,67.34
2019-06-01T22:03:34.539Z,67.54
2019-06-01T22:06:06.447Z,67.72
2019-06-01T22:08:38.523Z,67.77
2019-06-01T22:11:10.511Z,67.97
2019-06-01T22:13:42.323Z,68.19
2019-06-01T22:16:14.182Z,68.34
2019-06-01T22:18:45.976Z,68.58
2019-06-01T22:21:17.824Z,68.54
2019-06-01T22:23:50.781Z,68.52
2019-06-01T22:26:23.954Z,68.66
2019-06-01T22:28:55.928Z,68.85
2019-06-01T22:31:28.695Z,68.86
2019-06-01T22:34:00.712Z,69.08
2019-06-01T22:36:32.814Z,69.14
2019-06-01T22:39:05.831Z,69.21
2019-06-01T22:41:39.394Z,69.43
2019-06-01T22:44:13.077Z,69.38
2019-06-01T22:46:45.342Z,69.39
2019-06-01T22:49:17.112Z,69.37
2019-06-01T22:51:49.085Z,69.45
2019-06-01T22:54:21.098Z,69.39
2019-06-01T22:56:53.347Z,69.34
2019-06-01T22:59:26.587Z,69.45
2019-06-01T23:01:58.794Z,69.64
2019-06-01T23:04:31.391Z,69.73
2019-06-01T23:07:03.969Z,69.76
2019-06-01T23:09:35.778Z,69.71
2019-06-01T23:12:08.008Z,69.85
2019-06-01T23:14:40.048Z,70.13
2019-06-01T23:17:11.982Z,70.05
2019-06-01T23:19:44.119Z,70.06
2019-06-01T23:22:16.571Z,70.07
2019-06-01T23:24:48.329Z,70.09
2019-06-01T23:27:20.500Z,70.17
2019-06-01T23:29:52.347Z,70.42
2019-06-01T23:32:24.523Z,70.43
2019-06-01T23:34:56.714Z,70.47
2019-06-01T23:37:28.872Z,70.47
2019-06-01T23:40:00.939Z,70.47
2019-06-01T23:42:33.091Z,70.57
2019-06-01T23:45:05.178Z,70.51
2019-06-01T23:47:38.414Z,70.57
2019-06-01T23:50:10.368Z,70.72
2019-06-01T23:52:42.389Z,70.80
2019-06-01T23:55:14.521Z,70.88
2019-06-01T23:57:46.347Z,70.91
